San Gregorio, California
Current Conditions -  °F | °C
As of 4:15 PM on Sunday 25 Jan 2015 (Local Time) from KHAF Reporting Station
Clear Clear  
Wind Chill: 70°   Ceiling: Unl
Heat Index: 70°   Visibility: 7mi
Dew Point: 45°   Wind: 0mph
Humidity: 40%   Direction: NA
Pressure: 29.99"   Gusts: NA
Location:  37.33°N, 122.39°W
Report Text: KHAF 260015Z AUTO 00000KT 7SM CLR 21/07 A2999 RMK AO2
Loading
Personal Weather Stations






























Interactive Weather Map New forecast layout! Learn more

10-Day Weather Forecast

Advertisements
Track Severe Weather on mobile